Time;durP1;ratioP1;P1;durP2;ratioP2;P2;SDS_P1;SDS_P2;PMS_P1;PMS_P2;Temp;Humidity;BMP_temperature;BMP_pressure;BME280_temperature;BME280_humidity;BME280_pressure;Samples;Min_cycle;Max_cycle;Signal;HPM_P1;HPM_P2
2022/09/27 00:02:04;;;;;;;4.55;0.95;;;11.40;99.90;;;;;;5053237;28;20047;-69
2022/09/27 00:04:30;;;;;;;4.80;1.00;;;11.40;99.90;;;;;;5053093;28;20056;-69
2022/09/27 00:06:55;;;;;;;4.40;0.82;;;11.40;99.90;;;;;;5054825;28;20051;-69
2022/09/27 00:09:21;;;;;;;8.50;1.33;;;11.30;99.90;;;;;;5056504;28;20036;-69
2022/09/27 00:11:47;;;;;;;6.07;0.82;;;11.40;99.90;;;;;;5056593;28;20044;-69
2022/09/27 00:14:14;;;;;;;5.93;0.95;;;11.20;99.90;;;;;;5056017;28;20053;-69
2022/09/27 00:16:41;;;;;;;4.53;0.88;;;11.20;99.90;;;;;;5056694;28;20055;-69
2022/09/27 00:19:12;;;;;;;9.65;0.82;;;11.30;99.90;;;;;;5056506;28;20527;-69
2022/09/27 00:21:38;;;;;;;4.35;0.57;;;11.40;99.90;;;;;;5056639;28;20040;-69
2022/09/27 00:24:04;;;;;;;4.63;0.75;;;11.40;99.90;;;;;;5056623;28;20037;-69
2022/09/27 00:26:30;;;;;;;4.25;0.88;;;11.40;99.90;;;;;;5056415;28;20047;-69
2022/09/27 00:28:56;;;;;;;11.95;1.10;;;11.40;99.90;;;;;;5056329;28;20037;-69
2022/09/27 00:31:23;;;;;;;8.27;1.05;;;11.40;99.90;;;;;;5056786;28;20044;-69
2022/09/27 00:33:52;;;;;;;3.85;0.95;;;11.50;99.90;;;;;;5056379;28;20045;-69
2022/09/27 00:36:19;;;;;;;7.60;1.13;;;11.50;99.90;;;;;;5056209;28;20117;-69
2022/09/27 00:38:46;;;;;;;4.72;1.00;;;11.50;99.90;;;;;;5056405;28;20036;-69
2022/09/27 00:41:21;;;;;;;8.18;1.42;;;11.30;99.90;;;;;;5056172;28;20396;-69
2022/09/27 00:43:58;;;;;;;7.30;1.23;;;11.30;99.90;;;;;;5055853;28;20033;-69
2022/09/27 00:46:40;;;;;;;4.45;1.40;;;11.40;99.90;;;;;;5054625;28;20067;-69
2022/09/27 00:49:30;;;;;;;3.35;0.57;;;11.40;99.90;;;;;;5054679;28;20055;-69
2022/09/27 00:52:03;;;;;;;7.13;1.35;;;11.40;99.90;;;;;;5054498;28;20035;-69
2022/09/27 00:54:32;;;;;;;4.32;0.68;;;11.50;99.90;;;;;;5054380;28;20056;-69
2022/09/27 00:56:58;;;;;;;4.63;0.85;;;11.40;99.90;;;;;;5056004;28;20040;-69
2022/09/27 00:59:31;;;;;;;4.70;1.17;;;11.30;99.90;;;;;;5054473;28;20401;-69
2022/09/27 01:01:56;;;;;;;3.42;0.80;;;11.30;99.90;;;;;;5055913;28;20043;-70
2022/09/27 01:04:27;;;;;;;6.68;1.23;;;11.30;99.90;;;;;;5055774;28;20124;-70
2022/09/27 01:06:53;;;;;;;8.20;1.80;;;11.40;99.90;;;;;;5054508;28;20726;-70
2022/09/27 01:09:20;;;;;;;4.15;1.17;;;11.30;99.90;;;;;;5055734;28;20033;-70
2022/09/27 01:12:18;;;;;;;9.13;1.52;;;11.40;99.90;;;;;;5054486;28;20131;-69
2022/09/27 01:14:59;;;;;;;5.82;1.05;;;11.40;99.90;;;;;;5055499;28;20059;-70
2022/09/27 01:17:57;;;;;;;2.33;1.00;;;11.40;99.90;;;;;;5055548;28;20033;-69
2022/09/27 01:20:54;;;;;;;4.80;1.10;;;11.10;99.90;;;;;;5053468;28;20071;-69
2022/09/27 01:23:41;;;;;;;5.05;1.00;;;11.20;99.90;;;;;;5055193;28;20039;-69
2022/09/27 01:26:31;;;;;;;4.18;0.95;;;11.10;99.90;;;;;;5055207;28;20045;-69
2022/09/27 01:29:22;;;;;;;10.77;1.35;;;11.10;99.90;;;;;;5054092;28;20072;-69
2022/09/27 01:32:01;;;;;;;8.52;1.42;;;11.10;99.90;;;;;;5055247;28;20047;-69
2022/09/27 01:35:01;;;;;;;9.70;0.95;;;11.10;99.90;;;;;;5055038;28;20048;-69
2022/09/27 01:37:56;;;;;;;4.18;0.82;;;11.00;99.90;;;;;;5055093;28;20041;-69
2022/09/27 01:40:40;;;;;;;5.97;1.10;;;11.20;99.90;;;;;;5055272;28;20131;-69
2022/09/27 01:43:28;;;;;;;6.45;0.98;;;11.20;99.90;;;;;;5054946;28;20037;-69
2022/09/27 01:46:06;;;;;;;3.90;0.90;;;11.40;99.90;;;;;;5053649;28;20424;-69
2022/09/27 01:48:39;;;;;;;12.10;1.88;;;11.40;99.90;;;;;;5053462;28;20037;-69
2022/09/27 01:51:16;;;;;;;9.88;0.93;;;11.10;99.90;;;;;;5053457;28;20048;-69
2022/09/27 01:53:49;;;;;;;6.00;1.15;;;11.00;99.90;;;;;;5053337;28;20103;-69
2022/09/27 01:56:25;;;;;;;5.40;1.05;;;11.00;99.90;;;;;;5054707;28;20029;-69
2022/09/27 01:59:11;;;;;;;3.42;1.13;;;11.00;99.90;;;;;;5054780;28;20076;-69
2022/09/27 02:01:40;;;;;;;6.65;1.70;;;11.10;99.90;;;;;;5054689;28;20091;-69
2022/09/27 02:04:09;;;;;;;9.48;1.45;;;10.90;99.90;;;;;;5054355;28;20047;-69
2022/09/27 02:06:40;;;;;;;5.80;1.17;;;10.90;99.90;;;;;;5054532;28;20033;-69
2022/09/27 02:09:13;;;;;;;6.55;1.45;;;10.90;99.90;;;;;;5054588;28;20543;-69
2022/09/27 02:11:44;;;;;;;6.63;1.02;;;10.90;99.90;;;;;;5054535;28;20048;-69
2022/09/27 02:14:26;;;;;;;5.40;0.85;;;11.00;99.90;;;;;;5054446;28;20139;-69
2022/09/27 02:17:04;;;;;;;7.03;1.35;;;10.90;99.90;;;;;;5054349;28;20123;-69
2022/09/27 02:19:44;;;;;;;4.78;1.42;;;11.00;99.90;;;;;;5054079;28;20033;-69
2022/09/27 02:22:28;;;;;;;5.28;0.98;;;11.10;99.90;;;;;;5054416;28;20064;-69
2022/09/27 02:25:06;;;;;;;5.03;0.90;;;11.10;99.90;;;;;;5054388;28;20037;-69
2022/09/27 02:27:48;;;;;;;5.28;0.80;;;11.00;99.90;;;;;;5054140;28;20072;-69
2022/09/27 02:30:15;;;;;;;4.65;0.95;;;11.10;99.90;;;;;;5053337;28;20041;-69
2022/09/27 02:32:41;;;;;;;11.65;1.67;;;11.00;99.90;;;;;;5054351;28;20122;-69
2022/09/27 02:35:30;;;;;;;12.68;1.00;;;11.00;99.90;;;;;;5052751;28;20055;-69
2022/09/27 02:37:56;;;;;;;4.65;0.75;;;11.00;99.90;;;;;;5052505;28;20032;-69
2022/09/27 02:40:29;;;;;;;6.90;1.10;;;11.10;99.90;;;;;;5052873;28;20045;-69
2022/09/27 02:42:55;;;;;;;6.78;1.35;;;11.00;99.90;;;;;;5052653;28;20396;-69
2022/09/27 02:45:21;;;;;;;2.97;0.70;;;10.90;99.90;;;;;;5054034;28;20041;-69
2022/09/27 02:48:03;;;;;;;5.03;1.10;;;11.00;99.90;;;;;;5053940;28;20135;-69
2022/09/27 02:50:54;;;;;;;6.55;1.23;;;11.00;99.90;;;;;;5052580;28;20043;-69
2022/09/27 02:53:48;;;;;;;5.95;1.20;;;11.10;99.90;;;;;;5053874;28;20029;-69
2022/09/27 02:56:50;;;;;;;15.02;1.27;;;11.10;99.90;;;;;;5048954;28;20048;-69
2022/09/27 02:59:31;;;;;;;6.47;0.90;;;11.00;99.90;;;;;;5023433;28;20560;-69
2022/09/27 03:02:10;;;;;;;7.07;0.85;;;10.90;99.90;;;;;;5032015;28;20124;-69
2022/09/27 03:05:05;;;;;;;6.50;1.55;;;10.90;99.90;;;;;;5033719;28;20044;-68
2022/09/27 03:07:31;;;;;;;8.18;1.33;;;10.80;99.90;;;;;;5033640;28;20037;-69
2022/09/27 03:09:57;;;;;;;10.98;1.40;;;10.80;99.90;;;;;;5033539;28;20444;-68
2022/09/27 03:12:26;;;;;;;6.18;1.48;;;10.90;99.90;;;;;;5033495;28;20075;-69
2022/09/27 03:14:57;;;;;;;11.18;1.48;;;10.80;99.90;;;;;;5030578;28;20060;-69
2022/09/27 03:17:23;;;;;;;7.35;1.30;;;10.90;99.90;;;;;;5032564;28;20041;-69
2022/09/27 03:19:49;;;;;;;5.57;1.13;;;10.90;99.90;;;;;;5032263;28;20452;-69
2022/09/27 03:22:15;;;;;;;6.68;1.08;;;10.90;99.90;;;;;;5033705;28;20033;-69
2022/09/27 03:24:41;;;;;;;6.97;1.42;;;10.80;99.90;;;;;;5033630;28;20163;-69
2022/09/27 03:27:07;;;;;;;9.73;1.58;;;10.90;99.90;;;;;;5033691;28;20038;-69
2022/09/27 03:29:32;;;;;;;6.05;1.20;;;10.90;99.90;;;;;;5033520;28;20049;-69
2022/09/27 03:31:58;;;;;;;6.07;1.38;;;10.90;99.90;;;;;;5042127;28;20439;-69
2022/09/27 03:34:24;;;;;;;5.20;1.10;;;10.90;99.90;;;;;;5053833;28;20103;-68
2022/09/27 03:36:50;;;;;;;7.45;1.15;;;11.00;99.90;;;;;;5053454;28;20029;-68
2022/09/27 03:39:15;;;;;;;12.02;2.08;;;11.10;99.90;;;;;;5052346;28;20400;-69
2022/09/27 03:41:41;;;;;;;10.25;1.50;;;11.00;99.90;;;;;;5054876;28;20037;-69
2022/09/27 03:44:07;;;;;;;6.38;1.35;;;11.00;99.90;;;;;;5057430;28;20471;-69
2022/09/27 03:46:33;;;;;;;8.57;1.20;;;10.90;99.90;;;;;;5057368;28;20545;-69
2022/09/27 03:48:59;;;;;;;3.83;0.98;;;10.80;99.90;;;;;;5057156;28;20044;-69
2022/09/27 03:51:25;;;;;;;6.85;1.42;;;11.00;99.90;;;;;;5057276;28;20040;-69
2022/09/27 03:53:51;;;;;;;8.82;1.30;;;10.80;99.90;;;;;;5057202;28;20033;-69
2022/09/27 03:56:17;;;;;;;8.88;1.70;;;10.80;99.90;;;;;;5057124;28;20044;-69
2022/09/27 03:58:43;;;;;;;6.07;1.20;;;11.00;99.90;;;;;;5056948;28;20041;-69
2022/09/27 04:01:09;;;;;;;6.90;1.42;;;10.90;99.90;;;;;;5057021;28;20067;-69
2022/09/27 04:03:37;;;;;;;18.08;2.00;;;10.90;99.90;;;;;;5056745;28;20045;-68
2022/09/27 04:06:03;;;;;;;7.38;1.48;;;11.00;99.90;;;;;;5056684;28;20041;-68
2022/09/27 04:08:29;;;;;;;9.85;1.45;;;10.90;99.90;;;;;;5056765;28;20068;-68
2022/09/27 04:10:55;;;;;;;6.85;1.48;;;11.00;99.90;;;;;;5056645;28;20069;-68
2022/09/27 04:13:22;;;;;;;7.47;1.65;;;10.90;99.90;;;;;;5055104;28;20033;-68
2022/09/27 04:15:47;;;;;;;11.80;1.38;;;11.10;99.90;;;;;;5056617;28;20032;-67
2022/09/27 04:18:13;;;;;;;8.63;1.40;;;11.10;99.90;;;;;;5055546;28;20067;-67
2022/09/27 04:20:39;;;;;;;4.32;1.48;;;11.00;99.90;;;;;;5056707;28;20411;-67
2022/09/27 04:23:05;;;;;;;11.75;1.65;;;10.90;99.90;;;;;;5056686;28;20080;-68
2022/09/27 04:25:31;;;;;;;8.30;1.40;;;10.90;99.90;;;;;;5056557;28;20063;-68
2022/09/27 04:27:58;;;;;;;7.93;1.20;;;10.90;99.90;;;;;;5055055;28;20070;-68
2022/09/27 04:30:25;;;;;;;8.25;1.63;;;10.70;99.90;;;;;;5055142;28;20051;-68
2022/09/27 04:32:51;;;;;;;5.03;1.52;;;10.70;99.90;;;;;;5055072;28;20183;-68
2022/09/27 04:38:02;;;;;;;5.57;1.10;;;10.60;99.90;;;;;;5056176;28;20133;-68
2022/09/27 04:40:27;;;;;;;3.90;1.13;;;10.70;99.90;;;;;;5056191;28;20405;-68
2022/09/27 04:42:53;;;;;;;8.80;1.30;;;10.70;99.90;;;;;;5055994;28;20033;-68
2022/09/27 04:45:20;;;;;;;6.18;1.27;;;10.70;99.90;;;;;;5056065;28;20045;-68
2022/09/27 04:47:48;;;;;;;8.68;1.13;;;10.70;99.90;;;;;;5054667;28;20047;-68
2022/09/27 04:50:14;;;;;;;4.63;1.05;;;10.80;99.90;;;;;;5055679;28;20563;-68
2022/09/27 04:52:40;;;;;;;6.38;1.55;;;10.70;99.90;;;;;;5054859;28;20044;-68
2022/09/27 04:55:08;;;;;;;2.35;0.90;;;10.60;99.90;;;;;;5055556;28;20048;-68
2022/09/27 04:57:33;;;;;;;7.93;1.08;;;10.60;99.90;;;;;;5055986;28;20488;-68
2022/09/27 04:59:59;;;;;;;8.55;1.23;;;10.50;99.90;;;;;;5055729;28;20052;-68
2022/09/27 05:02:26;;;;;;;6.28;1.33;;;10.60;99.90;;;;;;5055697;28;20040;-68
2022/09/27 05:04:58;;;;;;;4.75;0.95;;;10.60;99.90;;;;;;5054214;28;20488;-69
2022/09/27 05:07:24;;;;;;;7.30;1.17;;;10.60;99.90;;;;;;5055498;28;20037;-68
2022/09/27 05:09:50;;;;;;;8.02;1.20;;;10.70;99.90;;;;;;5055535;28;20396;-68
2022/09/27 05:12:16;;;;;;;6.43;1.00;;;10.70;99.90;;;;;;5054330;28;20037;-68
2022/09/27 05:14:42;;;;;;;3.92;1.27;;;10.80;99.90;;;;;;5055591;28;20550;-68
2022/09/27 05:17:08;;;;;;;3.33;0.95;;;10.70;99.90;;;;;;5055490;28;20044;-68
2022/09/27 05:19:34;;;;;;;6.95;1.55;;;10.60;99.90;;;;;;5055547;28;20122;-68
2022/09/27 05:22:00;;;;;;;9.70;1.42;;;10.60;99.90;;;;;;5055400;28;20051;-69
2022/09/27 05:24:31;;;;;;;4.53;1.00;;;10.60;99.90;;;;;;5055344;28;20041;-69
2022/09/27 05:27:00;;;;;;;7.82;1.23;;;10.70;99.90;;;;;;5054045;28;20120;-68
2022/09/27 05:29:27;;;;;;;3.75;1.23;;;10.60;99.90;;;;;;5055190;28;20037;-69
2022/09/27 05:31:53;;;;;;;4.20;1.10;;;10.50;99.90;;;;;;5054466;28;20043;-69
2022/09/27 05:34:19;;;;;;;5.70;1.40;;;10.50;99.90;;;;;;5054357;28;20052;-69
2022/09/27 05:36:49;;;;;;;4.75;1.30;;;10.50;99.90;;;;;;5054025;28;20029;-69
2022/09/27 05:39:18;;;;;;;4.53;1.02;;;10.50;99.90;;;;;;5054534;28;20051;-68
2022/09/27 05:41:45;;;;;;;4.05;1.08;;;10.50;99.90;;;;;;5054983;28;20084;-68
2022/09/27 05:44:12;;;;;;;5.25;1.10;;;10.50;99.90;;;;;;5053839;28;20045;-68
2022/09/27 05:46:38;;;;;;;6.53;1.48;;;10.40;99.90;;;;;;5054992;28;20025;-69
2022/09/27 05:49:05;;;;;;;4.78;1.38;;;10.40;99.90;;;;;;5053576;28;20468;-68
2022/09/27 05:51:31;;;;;;;6.20;1.40;;;10.30;99.90;;;;;;5054827;28;20519;-68
2022/09/27 05:53:56;;;;;;;4.82;1.30;;;10.40;99.90;;;;;;5054315;28;20037;-69
2022/09/27 05:56:23;;;;;;;8.80;1.45;;;10.40;99.90;;;;;;5054796;28;20471;-68
2022/09/27 05:58:50;;;;;;;6.80;1.25;;;10.30;99.90;;;;;;5052941;28;20094;-68
2022/09/27 06:01:16;;;;;;;7.35;0.95;;;10.40;99.90;;;;;;5051482;28;20037;-69
2022/09/27 06:03:46;;;;;;;3.75;1.40;;;10.50;99.90;;;;;;5052931;28;20071;-70
2022/09/27 06:06:13;;;;;;;2.75;1.00;;;10.50;99.90;;;;;;5052879;28;20041;-68
2022/09/27 06:08:39;;;;;;;5.40;0.77;;;10.50;99.90;;;;;;5053015;28;20055;-68
2022/09/27 06:11:07;;;;;;;6.13;1.13;;;10.40;99.90;;;;;;5054368;28;20037;-68
2022/09/27 06:13:35;;;;;;;6.22;1.20;;;10.60;99.90;;;;;;5054332;28;20566;-69
2022/09/27 06:16:02;;;;;;;6.03;1.33;;;10.60;99.90;;;;;;5051977;28;20057;-67
2022/09/27 06:18:28;;;;;;;7.78;1.40;;;10.40;99.90;;;;;;5051628;28;20032;-67
2022/09/27 06:20:54;;;;;;;4.60;1.20;;;10.50;99.90;;;;;;5052492;28;20045;-67
2022/09/27 06:23:22;;;;;;;2.17;0.90;;;10.40;99.90;;;;;;5052581;28;20614;-68
2022/09/27 06:25:49;;;;;;;5.95;1.20;;;10.40;99.90;;;;;;5052052;28;20060;-68
2022/09/27 06:28:16;;;;;;;4.50;1.13;;;10.30;99.90;;;;;;5052643;28;20036;-68
2022/09/27 06:30:49;;;;;;;5.50;1.30;;;10.50;99.90;;;;;;5052096;28;20131;-68
2022/09/27 06:33:18;;;;;;;5.57;1.35;;;10.50;99.90;;;;;;5051159;28;20044;-70
2022/09/27 06:35:45;;;;;;;3.88;1.00;;;10.60;99.90;;;;;;5053144;28;20512;-70
2022/09/27 06:38:15;;;;;;;8.85;1.30;;;10.70;99.90;;;;;;5032103;28;20030;-68
2022/09/27 06:40:45;;;;;;;7.03;1.20;;;11.00;99.90;;;;;;5032009;28;20396;-68
2022/09/27 06:43:16;;;;;;;4.00;1.45;;;11.30;99.90;;;;;;5032121;28;20504;-68
2022/09/27 06:45:42;;;;;;;6.70;1.55;;;11.50;99.90;;;;;;5032256;28;20102;-67
2022/09/27 06:48:11;;;;;;;5.60;1.15;;;11.40;99.90;;;;;;5032202;28;20069;-68
2022/09/27 06:50:39;;;;;;;9.45;1.27;;;11.30;99.90;;;;;;5031079;28;20132;-68
2022/09/27 06:53:08;;;;;;;5.97;1.30;;;11.50;99.90;;;;;;5048996;28;20396;-67
2022/09/27 06:55:33;;;;;;;6.95;1.17;;;11.80;99.90;;;;;;5033901;28;20053;-68
2022/09/27 07:00:49;;;;;;;5.95;0.95;;;11.80;99.90;;;;;;5042218;28;20040;-68
2022/09/27 07:03:15;;;;;;;3.30;0.95;;;12.00;99.90;;;;;;5036134;28;20034;-67
2022/09/27 07:05:41;;;;;;;4.00;0.93;;;12.40;99.90;;;;;;5039166;28;20392;-69
2022/09/27 07:08:10;;;;;;;7.43;1.85;;;12.50;99.90;;;;;;5053273;28;20102;-67
2022/09/27 07:10:38;;;;;;;5.15;1.00;;;12.70;99.90;;;;;;5053911;28;20037;-68
2022/09/27 07:13:09;;;;;;;4.43;1.65;;;12.60;99.90;;;;;;5053838;28;20066;-67
2022/09/27 07:15:36;;;;;;;5.90;1.55;;;12.10;99.90;;;;;;5053940;28;20057;-67
2022/09/27 07:18:03;;;;;;;9.02;1.50;;;12.50;99.90;;;;;;5057470;28;20041;-68
2022/09/27 07:20:30;;;;;;;6.65;1.45;;;12.60;99.90;;;;;;5057627;28;20134;-69
2022/09/27 07:22:56;;;;;;;3.55;1.00;;;12.80;99.90;;;;;;5056500;28;20111;-69
2022/09/27 07:25:23;;;;;;;7.28;1.10;;;13.10;99.90;;;;;;5057826;28;20049;-69
2022/09/27 07:27:51;;;;;;;10.98;1.23;;;13.20;99.90;;;;;;5057766;28;20539;-68
2022/09/27 07:30:17;;;;;;;5.45;1.60;;;13.10;99.90;;;;;;5057390;28;20140;-68
2022/09/27 07:32:43;;;;;;;3.47;0.82;;;13.10;99.90;;;;;;5057257;28;20131;-68
2022/09/27 07:35:13;;;;;;;5.25;0.98;;;13.40;99.90;;;;;;5057325;28;20127;-69
2022/09/27 07:37:39;;;;;;;3.55;0.90;;;13.30;99.90;;;;;;5057568;28;20037;-68
2022/09/27 07:40:07;;;;;;;3.67;1.10;;;13.40;99.90;;;;;;5057517;28;20051;-69
2022/09/27 07:42:34;;;;;;;6.88;1.10;;;13.70;99.90;;;;;;5057437;28;20036;-68
2022/09/27 07:45:00;;;;;;;8.75;1.27;;;13.40;99.90;;;;;;5057445;28;20037;-70
2022/09/27 07:47:26;;;;;;;5.68;1.20;;;13.30;99.90;;;;;;5056122;28;20400;-67
2022/09/27 07:49:52;;;;;;;8.35;1.30;;;13.50;99.90;;;;;;5057109;28;20040;-70
2022/09/27 07:52:18;;;;;;;6.47;1.75;;;13.50;99.90;;;;;;5057361;28;20053;-69
2022/09/27 07:54:45;;;;;;;4.75;1.08;;;13.90;99.90;;;;;;5057253;28;20060;-70
2022/09/27 07:57:12;;;;;;;4.97;1.13;;;13.80;99.90;;;;;;5057201;28;20036;-69
2022/09/27 07:59:38;;;;;;;7.35;1.58;;;14.30;99.90;;;;;;5056991;28;20094;-68
2022/09/27 08:02:04;;;;;;;3.40;1.10;;;14.30;99.90;;;;;;5056844;28;20389;-68
2022/09/27 08:04:30;;;;;;;6.13;1.27;;;14.70;99.90;;;;;;5055627;28;20129;-68
2022/09/27 08:06:55;;;;;;;7.43;1.10;;;14.90;99.90;;;;;;5056979;28;20045;-70
2022/09/27 08:09:21;;;;;;;9.55;1.38;;;15.10;99.90;;;;;;5055531;28;20094;-68
2022/09/27 08:11:47;;;;;;;4.22;1.10;;;15.30;99.90;;;;;;5055638;28;20052;-69
2022/09/27 08:14:13;;;;;;;4.25;1.10;;;15.30;99.90;;;;;;5055529;28;20500;-69
2022/09/27 08:16:40;;;;;;;2.60;0.88;;;15.10;99.90;;;;;;5056814;28;20037;-68
2022/09/27 08:19:06;;;;;;;3.90;1.08;;;;;;;;;;5055443;28;20029;-70
2022/09/27 08:21:32;;;;;;;11.85;1.98;;;15.60;99.90;;;;;;5056794;28;20041;-70
2022/09/27 08:23:58;;;;;;;6.97;1.02;;;15.50;99.90;;;;;;5056602;28;20523;-70
2022/09/27 08:26:27;;;;;;;6.05;1.00;;;15.30;99.90;;;;;;5056571;28;20043;-70
2022/09/27 08:28:53;;;;;;;6.00;1.27;;;15.10;99.90;;;;;;5055338;28;20542;-69
2022/09/27 08:31:19;;;;;;;6.05;1.00;;;15.30;99.90;;;;;;5056554;28;20044;-69
2022/09/27 08:33:52;;;;;;;5.63;0.75;;;16.00;99.90;;;;;;5055152;28;20051;-70
2022/09/27 08:36:19;;;;;;;10.73;0.85;;;15.70;99.90;;;;;;5056340;28;20076;-68
2022/09/27 08:38:49;;;;;;;4.20;0.90;;;15.50;99.90;;;;;;5055114;28;20124;-70
2022/09/27 08:41:33;;;;;;;9.60;1.00;;;16.00;99.90;;;;;;5056594;28;20144;-69
2022/09/27 08:44:17;;;;;;;7.50;1.02;;;15.80;99.90;;;;;;5056205;28;20280;-70
2022/09/27 08:46:52;;;;;;;7.38;1.20;;;15.40;99.90;;;;;;5054938;28;20036;-69
2022/09/27 08:49:40;;;;;;;3.83;1.00;;;15.30;99.90;;;;;;5056297;28;20393;-70
2022/09/27 08:52:14;;;;;;;5.57;1.05;;;14.40;99.90;;;;;;5056141;28;20033;-68
2022/09/27 08:54:41;;;;;;;4.78;1.10;;;14.30;99.90;;;;;;5056046;28;20049;-69
2022/09/27 08:57:11;;;;;;;2.58;0.90;;;14.10;99.90;;;;;;5056140;28;20421;-69
2022/09/27 08:59:44;;;;;;;2.97;0.80;;;13.90;99.90;;;;;;5056195;28;20392;-70
2022/09/27 09:02:18;;;;;;;3.53;1.02;;;14.20;99.90;;;;;;5056026;28;20040;-70
2022/09/27 09:04:46;;;;;;;4.03;1.50;;;14.10;99.90;;;;;;5055848;28;20041;-69
2022/09/27 09:08:10;;;;;;;7.45;0.75;;;14.00;99.90;;;;;;5055889;28;20060;-69
2022/09/27 09:14:01;;;;;;;6.90;1.45;;;14.30;99.90;;;;;;5055780;28;20152;-70
2022/09/27 09:16:41;;;;;;;3.20;0.68;;;14.00;99.90;;;;;;5054496;28;20496;-69
2022/09/27 09:19:50;;;;;;;3.78;0.90;;;13.90;99.90;;;;;;5055695;28;20040;-69
2022/09/27 09:22:35;;;;;;;7.82;0.98;;;14.10;99.90;;;;;;5013695;28;20493;-68
2022/09/27 09:25:09;;;;;;;2.58;1.02;;;14.20;99.90;;;;;;5013405;28;20034;-69
2022/09/27 09:27:50;;;;;;;2.67;0.70;;;14.10;99.90;;;;;;5042625;28;20037;-69
2022/09/27 09:30:17;;;;;;;8.40;0.93;;;14.20;99.90;;;;;;5054233;28;20127;-68
2022/09/27 09:32:51;;;;;;;2.47;0.77;;;14.00;99.90;;;;;;5055361;28;20542;-69
2022/09/27 09:35:26;;;;;;;4.70;0.93;;;14.00;99.90;;;;;;5055077;28;20049;-69
2022/09/27 09:38:00;;;;;;;3.08;1.00;;;13.80;99.90;;;;;;5054309;28;20074;-69
2022/09/27 09:40:31;;;;;;;4.22;0.70;;;13.50;99.90;;;;;;5054953;28;20045;-69
2022/09/27 09:43:04;;;;;;;5.80;0.77;;;13.30;99.90;;;;;;5055201;28;20047;-68
2022/09/27 09:45:40;;;;;;;2.90;0.65;;;13.50;99.90;;;;;;5055146;28;20090;-69
2022/09/27 09:48:36;;;;;;;3.00;0.80;;;13.70;99.90;;;;;;5055274;28;20036;-68
2022/09/27 09:51:09;;;;;;;8.43;0.85;;;13.40;99.90;;;;;;5050563;28;20091;-69
2022/09/27 09:54:03;;;;;;;6.57;1.08;;;13.30;99.90;;;;;;5054900;28;20040;-68
2022/09/27 09:56:37;;;;;;;9.32;1.08;;;13.40;99.90;;;;;;5054990;28;20076;-69
2022/09/27 09:59:18;;;;;;;4.22;1.02;;;13.70;99.90;;;;;;5054909;28;20035;-69
2022/09/27 10:01:47;;;;;;;6.85;1.08;;;13.40;99.90;;;;;;5053493;28;20072;-69
2022/09/27 10:04:22;;;;;;;5.82;1.20;;;13.80;99.90;;;;;;5051066;28;20042;-69
2022/09/27 10:06:49;;;;;;;5.97;0.90;;;13.80;99.90;;;;;;5049410;28;20032;-69
2022/09/27 10:09:16;;;;;;;2.45;1.38;;;13.70;99.90;;;;;;5036896;28;20108;-69
2022/09/27 10:11:46;;;;;;;3.72;0.57;;;14.10;99.90;;;;;;5034710;28;20065;-69
2022/09/27 10:14:15;;;;;;;6.57;1.00;;;14.00;99.90;;;;;;5052537;28;20033;-69
2022/09/27 10:16:47;;;;;;;16.05;7.13;;;14.00;99.90;;;;;;5038953;28;20489;-69
2022/09/27 10:19:17;;;;;;;6.47;1.58;;;13.70;99.90;;;;;;5036983;28;20037;-69
2022/09/27 10:21:47;;;;;;;9.53;0.87;;;13.40;99.90;;;;;;5054348;28;20049;-69
2022/09/27 10:24:14;;;;;;;3.70;1.37;;;13.50;99.90;;;;;;5047177;28;20053;-69
2022/09/27 10:26:42;;;;;;;2.92;1.13;;;13.40;99.90;;;;;;5034432;28;20069;-68
2022/09/27 10:29:34;;;;;;;2.70;1.38;;;13.30;99.90;;;;;;5033267;28;20068;-69
2022/09/27 10:32:04;;;;;;;2.60;0.77;;;13.30;99.90;;;;;;5034410;28;20041;-69
2022/09/27 10:34:37;;;;;;;3.80;1.20;;;13.30;99.90;;;;;;5047404;28;20067;-69
2022/09/27 10:37:16;;;;;;;4.38;1.20;;;13.40;99.90;;;;;;5054137;28;20049;-68
2022/09/27 10:39:43;;;;;;;3.60;1.38;;;13.40;99.90;;;;;;5054367;28;20060;-68
2022/09/27 10:42:21;;;;;;;3.92;1.00;;;13.60;99.90;;;;;;5053993;28;20398;-68
2022/09/27 10:44:47;;;;;;;4.43;1.10;;;13.80;99.90;;;;;;5053773;28;20055;-69
2022/09/27 10:47:21;;;;;;;2.33;1.33;;;13.90;99.90;;;;;;5053880;28;20032;-68
2022/09/27 10:49:51;;;;;;;3.08;0.70;;;14.00;99.90;;;;;;5053804;28;20558;-68
2022/09/27 10:52:20;;;;;;;6.40;1.25;;;14.10;99.90;;;;;;5053236;28;20480;-69
2022/09/27 10:55:20;;;;;;;3.40;0.73;;;13.80;99.90;;;;;;5053984;28;20530;-69
2022/09/27 10:57:52;;;;;;;3.03;0.82;;;13.70;99.90;;;;;;5053878;28;20045;-69
2022/09/27 11:00:31;;;;;;;5.20;1.13;;;13.70;99.90;;;;;;5052661;28;20041;-68
2022/09/27 11:03:01;;;;;;;7.50;3.80;;;13.60;99.90;;;;;;5051728;28;20040;-69
2022/09/27 11:05:33;;;;;;;2.75;1.50;;;13.80;99.90;;;;;;5047863;28;20044;-68
2022/09/27 11:08:02;;;;;;;5.25;2.97;;;13.70;99.90;;;;;;5035082;28;20127;-68
2022/09/27 11:10:32;;;;;;;3.28;1.23;;;13.80;99.90;;;;;;5032607;28;20124;-68
2022/09/27 11:13:14;;;;;;;13.35;1.33;;;14.00;99.90;;;;;;5033664;28;20603;-68
2022/09/27 11:16:04;;;;;;;5.30;1.67;;;14.20;99.90;;;;;;5033292;28;20060;-68
2022/09/27 11:19:00;;;;;;;4.10;1.55;;;14.10;99.90;;;;;;5030214;28;20440;-68
2022/09/27 11:21:44;;;;;;;2.47;0.57;;;14.10;99.90;;;;;;5032951;28;20128;-68
2022/09/27 11:24:39;;;;;;;8.30;1.42;;;14.00;99.90;;;;;;5031849;28;20053;-68
2022/09/27 11:27:43;;;;;;;3.72;0.82;;;13.70;99.90;;;;;;5031360;28;20084;-68
2022/09/27 11:30:14;;;;;;;6.53;1.05;;;13.70;99.90;;;;;;5030747;28;20120;-68
2022/09/27 11:33:14;;;;;;;3.55;0.90;;;13.90;99.90;;;;;;5031256;28;20072;-68
2022/09/27 11:35:55;;;;;;;4.63;0.82;;;13.90;99.90;;;;;;5031436;28;20057;-68
2022/09/27 11:39:03;;;;;;;3.03;0.63;;;14.00;99.90;;;;;;5031647;28;20056;-68
2022/09/27 11:41:58;;;;;;;3.53;0.90;;;14.00;99.90;;;;;;5023222;28;20124;-68
2022/09/27 11:44:45;;;;;;;1.98;0.77;;;14.30;99.90;;;;;;5032438;28;20056;-68
2022/09/27 11:47:29;;;;;;;7.40;3.08;;;14.70;99.90;;;;;;5031343;28;20045;-68
2022/09/27 11:50:01;;;;;;;10.05;3.70;;;15.40;99.90;;;;;;5032071;28;20432;-68
2022/09/27 11:52:51;;;;;;;13.00;5.55;;;15.30;99.90;;;;;;5032056;28;20140;-69
2022/09/27 11:55:35;;;;;;;17.95;9.75;;;15.50;99.90;;;;;;5031311;28;20049;-68
2022/09/27 11:58:26;;;;;;;13.60;7.35;;;15.70;99.90;;;;;;5033211;28;20034;-68
2022/09/27 12:01:05;;;;;;;16.75;11.27;;;15.40;99.90;;;;;;5032921;28;20045;-68
2022/09/27 12:03:31;;;;;;;5.30;2.38;;;15.80;99.90;;;;;;5037669;28;20037;-68
2022/09/27 12:06:18;;;;;;;7.65;2.85;;;15.20;99.90;;;;;;5054451;28;20123;-68
2022/09/27 12:09:01;;;;;;;10.02;6.03;;;15.40;99.90;;;;;;5055040;28;20074;-69
2022/09/27 12:11:46;;;;;;;4.72;0.90;;;15.90;99.90;;;;;;5056612;28;20443;-68
2022/09/27 12:14:23;;;;;;;6.28;1.80;;;15.50;99.90;;;;;;5054738;28;20036;-68
2022/09/27 12:16:52;;;;;;;5.75;1.63;;;15.40;99.90;;;;;;5054335;28;20045;-68
2022/09/27 12:19:34;;;;;;;16.75;7.90;;;15.60;99.90;;;;;;5054468;28;20588;-68
2022/09/27 12:22:03;;;;;;;5.80;3.60;;;15.30;99.90;;;;;;5054575;28;20044;-68
2022/09/27 12:24:29;;;;;;;11.65;4.43;;;15.20;99.90;;;;;;5054522;28;20091;-68
2022/09/27 12:27:09;;;;;;;7.03;3.58;;;15.50;99.90;;;;;;5054955;28;20492;-68
2022/09/27 12:29:40;;;;;;;2.58;1.27;;;15.60;99.90;;;;;;5055406;28;20119;-68
2022/09/27 12:32:19;;;;;;;3.30;1.33;;;15.30;99.90;;;;;;5052403;28;20472;-68
2022/09/27 12:35:16;;;;;;;8.20;3.45;;;15.20;99.90;;;;;;5054440;28;20052;-68
2022/09/27 12:37:47;;;;;;;14.57;5.88;;;15.40;99.90;;;;;;5056195;28;20045;-68
2022/09/27 12:40:24;;;;;;;4.75;2.10;;;15.40;99.90;;;;;;5055380;28;20052;-68
2022/09/27 12:43:16;;;;;;;4.20;0.60;;;15.40;99.90;;;;;;5054161;28;20496;-68
2022/09/27 12:46:03;;;;;;;2.10;1.42;;;15.30;99.90;;;;;;5053419;28;20700;-68
2022/09/27 12:48:40;;;;;;;10.05;3.50;;;15.40;99.90;;;;;;5052863;28;20036;-68
2022/09/27 12:51:09;;;;;;;2.63;0.90;;;15.50;99.90;;;;;;5053895;28;20036;-68
2022/09/27 12:54:04;;;;;;;7.32;1.60;;;15.30;99.90;;;;;;5053946;28;20041;-68
2022/09/27 12:57:07;;;;;;;6.60;1.35;;;15.40;99.90;;;;;;5055580;28;20391;-68
2022/09/27 12:59:55;;;;;;;5.38;1.50;;;15.10;99.90;;;;;;5055343;28;20064;-68
2022/09/27 13:03:00;;;;;;;4.60;4.10;;;14.80;99.90;;;;;;5055357;28;20467;-68
2022/09/27 13:05:29;;;;;;;3.03;1.20;;;14.60;99.90;;;;;;5054780;28;20120;-68
2022/09/27 13:08:13;;;;;;;7.22;3.15;;;14.10;99.90;;;;;;5052912;28;20506;-68
2022/09/27 13:10:46;;;;;;;9.15;2.70;;;13.80;99.90;;;;;;5055300;28;20032;-69
2022/09/27 13:13:15;;;;;;;5.93;2.72;;;13.90;99.90;;;;;;5053164;28;20511;-69
2022/09/27 13:15:44;;;;;;;10.43;0.95;;;13.90;99.90;;;;;;5052859;28;20045;-68
2022/09/27 13:18:29;;;;;;;2.45;0.90;;;13.80;99.90;;;;;;5054681;28;20045;-68
2022/09/27 13:20:55;;;;;;;10.52;0.88;;;13.90;99.90;;;;;;5055271;28;20403;-68
2022/09/27 13:23:22;;;;;;;4.82;1.85;;;14.00;99.90;;;;;;5053745;28;20051;-69
2022/09/27 13:25:51;;;;;;;7.03;2.85;;;14.20;99.90;;;;;;5053652;28;20507;-69